Time;durP1;ratioP1;P1;durP2;ratioP2;P2;SDS_P1;SDS_P2;PMS_P1;PMS_P2;Temp;Humidity;BMP_temperature;BMP_pressure;BME280_temperature;BME280_humidity;BME280_pressure;Samples;Min_cycle;Max_cycle;Signal;HPM_P1;HPM_P2
2023/01/11 00:01:50;;;;;;;16.42;12.00;;;153.60;2252.80;;;;;;5088372;28;20024;-61
2023/01/11 00:04:16;;;;;;;13.88;9.05;;;153.70;2252.80;;;;;;5088560;28;20389;-62
2023/01/11 00:06:42;;;;;;;13.13;8.05;;;153.60;2252.80;;;;;;5088291;28;20078;-62
2023/01/11 00:09:08;;;;;;;13.68;7.82;;;153.60;2252.80;;;;;;5088213;28;20042;-61
2023/01/11 00:11:34;;;;;;;13.45;7.70;;;153.60;2252.80;;;;;;5088668;28;20036;-61
2023/01/11 00:14:00;;;;;;;36.58;15.43;;;128.90;2252.80;;;;;;5088664;28;20078;-63
2023/01/11 00:16:25;;;;;;;10.77;7.47;;;128.90;2252.80;;;;;;5088567;28;20107;-62
2023/01/11 00:18:51;;;;;;;4.45;2.33;;;153.60;2252.80;;;;;;5088287;28;20020;-61
2023/01/11 00:21:17;;;;;;;5.90;3.10;;;128.90;2252.80;;;;;;5088403;28;20020;-61
2023/01/11 00:23:42;;;;;;;4.80;2.78;;;153.60;2252.80;;;;;;5088364;28;20040;-60
2023/01/11 00:26:11;;;;;;;8.23;4.45;;;153.60;2252.80;;;;;;5088012;28;20039;-61
2023/01/11 00:28:37;;;;;;;8.05;7.25;;;153.60;2252.80;;;;;;5088105;28;20043;-61
2023/01/11 00:31:03;;;;;;;10.05;5.68;;;153.60;2252.80;;;;;;5088372;28;20021;-61
2023/01/11 00:33:29;;;;;;;13.07;6.90;;;153.70;2252.80;;;;;;5087830;28;20040;-62
2023/01/11 00:35:54;;;;;;;8.95;5.68;;;153.70;2252.80;;;;;;5088275;28;20648;-61
2023/01/11 00:38:42;;;;;;;7.90;4.15;;;153.70;2252.80;;;;;;5088236;28;20157;-61
2023/01/11 00:49:22;;;;;;;4.18;2.72;;;153.60;2252.80;;;;;;5089778;28;20499;-62
2023/01/11 00:51:48;;;;;;;5.93;2.95;;;128.90;2252.80;;;;;;5088791;28;20111;-63
2023/01/11 00:54:14;;;;;;;17.02;13.02;;;128.90;2252.80;;;;;;5092019;28;20527;-64
2023/01/11 00:56:40;;;;;;;5.18;3.20;;;153.80;2252.80;;;;;;5092535;28;20020;-63
2023/01/11 00:59:06;;;;;;;6.55;4.13;;;128.80;2252.80;;;;;;5092662;28;20028;-63
2023/01/11 01:01:32;;;;;;;5.38;3.33;;;128.90;2252.80;;;;;;5092640;28;20028;-63
2023/01/11 01:04:01;;;;;;;4.43;2.33;;;128.90;2252.80;;;;;;5092444;28;20512;-63
2023/01/11 01:06:28;;;;;;;7.15;4.05;;;128.90;2252.80;;;;;;5093524;28;20036;-64
2023/01/11 01:08:54;;;;;;;8.65;5.07;;;128.90;2252.80;;;;;;5093367;28;20020;-60
2023/01/11 01:11:20;;;;;;;7.93;4.18;;;128.90;2252.80;;;;;;5093470;28;20033;-62
2023/01/11 01:16:31;;;;;;;4.18;1.92;;;128.70;2252.80;;;;;;5093671;28;20083;-63
2023/01/11 01:18:57;;;;;;;4.22;2.03;;;128.70;2252.80;;;;;;5093245;28;20032;-64
2023/01/11 01:21:24;;;;;;;3.47;2.20;;;128.70;2252.80;;;;;;5093282;28;20017;-64
2023/01/11 01:23:53;;;;;;;2.95;1.55;;;128.70;2252.80;;;;;;5093133;28;20062;-64
2023/01/11 01:26:20;;;;;;;4.80;3.03;;;128.70;2252.80;;;;;;5092943;28;20145;-63
2023/01/11 01:28:46;;;;;;;7.13;3.63;;;128.70;2252.80;;;;;;5092930;28;20383;-62
2023/01/11 01:31:12;;;;;;;6.93;3.30;;;128.60;2252.80;;;;;;5093386;28;20028;-64
2023/01/11 01:33:37;;;;;;;6.75;4.10;;;128.50;2252.80;;;;;;5092879;28;20115;-64
2023/01/11 01:36:04;;;;;;;6.03;3.90;;;128.50;2252.80;;;;;;5093423;28;20051;-63
2023/01/11 01:38:30;;;;;;;8.60;4.03;;;128.70;2252.80;;;;;;5091780;28;20047;-61
2023/01/11 01:40:56;;;;;;;6.22;3.40;;;128.70;2252.80;;;;;;5092168;28;20472;-62
2023/01/11 01:43:25;;;;;;;5.55;2.35;;;128.60;2252.80;;;;;;5091450;28;20028;-60
2023/01/11 01:45:51;;;;;;;4.97;2.30;;;128.70;2252.80;;;;;;5091420;28;20059;-63
2023/01/11 01:48:24;;;;;;;6.88;2.65;;;128.50;2252.80;;;;;;5091947;28;20058;-61
2023/01/11 01:50:56;;;;;;;29.08;22.55;;;128.40;2252.80;;;;;;5090363;28;20038;-60
2023/01/11 01:53:30;;;;;;;5.72;4.03;;;128.40;2252.80;;;;;;5091694;28;20356;-61
2023/01/11 01:56:00;;;;;;;5.55;3.15;;;128.40;2252.80;;;;;;5091509;28;20103;-61
2023/01/11 01:58:31;;;;;;;7.75;5.07;;;128.50;2252.80;;;;;;5089670;28;20028;-61
2023/01/11 02:01:45;;;;;;;11.43;5.63;;;128.50;2252.80;;;;;;5091662;28;20017;-62
2023/01/11 02:03:42;;;;;;;5.82;3.50;;;128.50;2252.80;;;;;;5092000;28;20036;-60
2023/01/11 02:06:09;;;;;;;5.18;2.83;;;128.40;2252.80;;;;;;5091583;28;20032;-61
2023/01/11 02:08:39;;;;;;;8.48;4.78;;;128.40;2252.80;;;;;;5092587;28;20054;-60
2023/01/11 02:11:28;;;;;;;5.82;3.42;;;128.40;2252.80;;;;;;5092444;28;20059;-64
2023/01/11 02:13:53;;;;;;;8.55;3.75;;;128.40;2252.80;;;;;;5092199;28;20062;-60
2023/01/11 02:16:19;;;;;;;5.93;2.85;;;128.40;2252.80;;;;;;5092005;28;20024;-64
2023/01/11 02:18:44;;;;;;;5.30;3.10;;;128.40;2252.80;;;;;;5092174;28;20036;-60
2023/01/11 02:21:43;;;;;;;13.35;6.78;;;128.40;2252.80;;;;;;5092149;28;20024;-60
2023/01/11 02:24:57;;;;;;;15.32;7.75;;;128.40;2252.80;;;;;;5091853;28;20442;-61
2023/01/11 02:27:41;;;;;;;;;;;128.30;2252.80;;;;;;5075189;28;20032;-60
2023/01/11 02:30:31;;;;;;;5.80;2.72;;;128.30;2252.80;;;;;;5091699;28;19904;-60
2023/01/11 02:33:14;;;;;;;8.30;4.65;;;128.10;2252.80;;;;;;5091533;28;20030;-60
2023/01/11 02:36:04;;;;;;;5.65;3.53;;;;;;;;;;5091820;28;20381;-60
2023/01/11 02:38:51;;;;;;;9.73;5.72;;;128.00;2252.80;;;;;;5091615;28;20055;-60
2023/01/11 02:45:24;;;;;;;3.55;2.08;;;128.10;2252.80;;;;;;5009515;28;20064;-60
2023/01/11 02:47:58;;;;;;;5.65;2.92;;;128.10;2252.80;;;;;;5068707;28;20074;-63
2023/01/11 02:50:31;;;;;;;4.75;2.95;;;128.10;2252.80;;;;;;5091678;28;20434;-59
2023/01/11 02:52:56;;;;;;;4.53;2.80;;;128.20;2252.80;;;;;;5091312;28;20466;-60
2023/01/11 02:55:29;;;;;;;6.00;2.78;;;128.10;2252.80;;;;;;5091587;28;20035;-60
2023/01/11 02:57:57;;;;;;;3.47;1.90;;;128.20;2252.80;;;;;;5091438;28;20035;-61
2023/01/11 03:00:24;;;;;;;4.65;2.88;;;128.30;2252.80;;;;;;5091604;28;20105;-63
2023/01/11 03:03:13;;;;;;;6.30;3.85;;;128.20;2252.80;;;;;;5091084;28;20517;-64
2023/01/11 03:06:04;;;;;;;4.65;2.83;;;128.30;2252.80;;;;;;5090946;28;20047;-63
2023/01/11 03:08:48;;;;;;;6.18;4.20;;;128.30;2252.80;;;;;;5091318;28;20028;-61
2023/01/11 03:14:37;;;;;;;8.05;4.40;;;128.30;2252.80;;;;;;5091481;28;20038;-61
2023/01/11 03:17:12;;;;;;;7.78;4.93;;;128.40;2252.80;;;;;;5090892;28;20466;-62
2023/01/11 03:19:50;;;;;;;6.95;3.75;;;128.30;2252.80;;;;;;5091192;28;20165;-61
2023/01/11 03:22:31;;;;;;;10.15;4.43;;;128.30;2252.80;;;;;;5090882;28;20047;-62
2023/01/11 03:25:11;;;;;;;9.02;6.00;;;128.30;2252.80;;;;;;5090818;28;20051;-61
2023/01/11 03:27:49;;;;;;;6.57;3.35;;;128.40;2073.60;;;;;;5090853;28;20020;-61
2023/01/11 03:30:31;;;;;;;5.80;3.50;;;128.50;1945.60;;;;;;5090697;28;20059;-62
2023/01/11 03:33:42;;;;;;;10.77;6.30;;;128.40;1868.80;;;;;;5090449;28;20016;-62
2023/01/11 03:36:13;;;;;;;26.77;14.50;;;128.40;2252.80;;;;;;5088376;28;20043;-66
2023/01/11 03:38:42;;;;;;;9.48;4.43;;;128.40;2048.00;;;;;;5094417;28;20097;-67
2023/01/11 03:41:16;;;;;;;5.53;3.60;;;128.40;2252.80;;;;;;5094237;28;20119;-62
2023/01/11 03:43:42;;;;;;;;;;;128.60;2252.80;;;;;;5095016;28;20032;-62
2023/01/11 03:46:19;;;;;;;11.57;6.57;;;128.40;2252.80;;;;;;5094407;28;19927;-64
2023/01/11 03:48:56;;;;;;;27.90;14.60;;;128.40;2252.80;;;;;;5094130;28;20088;-62
2023/01/11 03:51:28;;;;;;;19.65;9.45;;;128.40;2176.00;;;;;;5090715;28;20377;-61
2023/01/11 03:54:02;;;;;;;33.20;20.38;;;128.40;2022.40;;;;;;5090484;28;20027;-61
2023/01/11 03:57:00;;;;;;;4.65;3.20;;;128.40;2252.80;;;;;;5090744;28;20035;-61
2023/01/11 03:59:27;;;;;;;5.75;3.75;;;128.50;2252.80;;;;;;5090049;28;20554;-62
2023/01/11 04:01:53;;;;;;;10.45;6.15;;;128.40;2252.80;;;;;;5090376;28;20111;-60
2023/01/11 04:04:19;;;;;;;5.53;3.85;;;128.30;2252.80;;;;;;5087998;28;20052;-62
2023/01/11 04:06:45;;;;;;;7.55;5.18;;;128.20;2252.80;;;;;;5089962;28;20031;-63
2023/01/11 04:09:10;;;;;;;6.60;4.03;;;128.20;2252.80;;;;;;5090130;28;20093;-60
2023/01/11 04:11:36;;;;;;;4.15;3.33;;;128.20;2252.80;;;;;;5090288;28;20020;-62
2023/01/11 04:14:02;;;;;;;10.85;6.70;;;128.10;2252.80;;;;;;5090232;28;20032;-62
2023/01/11 04:16:27;;;;;;;15.88;7.93;;;128.10;2252.80;;;;;;5090047;28;20024;-62
2023/01/11 04:18:53;;;;;;;4.63;3.08;;;103.30;2227.20;;;;;;5089998;28;20035;-61
2023/01/11 04:21:19;;;;;;;4.88;3.30;;;103.30;2227.20;;;;;;5089598;28;20519;-60
2023/01/11 04:23:45;;;;;;;22.90;12.25;;;128.00;2252.80;;;;;;5089930;28;20036;-61
2023/01/11 04:26:11;;;;;;;7.35;3.70;;;103.30;2227.20;;;;;;5090180;28;20077;-61
2023/01/11 04:28:36;;;;;;;11.30;6.25;;;103.30;2227.20;;;;;;5092051;28;20032;-62
2023/01/11 04:31:02;;;;;;;5.97;2.20;;;103.20;2227.20;;;;;;5094213;28;20030;-66
2023/01/11 04:33:28;;;;;;;6.10;3.08;;;103.10;2227.20;;;;;;5093933;28;20067;-61
2023/01/11 04:35:53;;;;;;;7.25;4.10;;;103.00;2227.20;;;;;;5094186;28;20016;-61
2023/01/11 04:38:22;;;;;;;5.18;3.03;;;102.90;2227.20;;;;;;5093939;28;20028;-63
2023/01/11 04:40:48;;;;;;;4.68;2.53;;;102.90;2227.20;;;;;;5094054;28;20119;-61
2023/01/11 04:43:14;;;;;;;7.13;3.00;;;102.80;2227.20;;;;;;5094166;28;20181;-63
2023/01/11 04:45:39;;;;;;;5.15;2.45;;;102.80;2227.20;;;;;;5093941;28;20438;-64
2023/01/11 04:48:05;;;;;;;6.38;4.72;;;102.90;2227.20;;;;;;5093834;28;20041;-63
2023/01/11 04:50:31;;;;;;;5.50;2.90;;;102.80;2227.20;;;;;;5093774;28;20073;-64
2023/01/11 04:52:57;;;;;;;8.35;4.88;;;102.70;2227.20;;;;;;5093603;28;20021;-62
2023/01/11 04:55:22;;;;;;;6.57;3.50;;;102.60;2227.20;;;;;;5093959;28;20016;-62
2023/01/11 04:57:48;;;;;;;9.60;6.72;;;102.70;2227.20;;;;;;5093645;28;20024;-61
2023/01/11 05:00:14;;;;;;;5.38;3.17;;;102.60;2227.20;;;;;;5093876;28;20097;-62
2023/01/11 05:02:40;;;;;;;6.63;3.03;;;102.70;2227.20;;;;;;5093505;28;20050;-64
2023/01/11 05:05:08;;;;;;;4.32;2.20;;;102.60;2227.20;;;;;;5093279;28;20119;-62
2023/01/11 05:07:33;;;;;;;5.85;3.80;;;102.60;2227.20;;;;;;5093495;28;20024;-63
2023/01/11 05:09:59;;;;;;;8.20;3.92;;;102.50;2227.20;;;;;;5093207;28;20024;-63
2023/01/11 05:12:25;;;;;;;6.45;3.45;;;;;;;;;;5093679;28;20489;-63
2023/01/11 05:14:51;;;;;;;3.83;2.22;;;;;;;;;;5093376;28;20028;-63
2023/01/11 05:17:17;;;;;;;3.58;2.25;;;;;;;;;;5093184;28;20035;-62
2023/01/11 05:19:43;;;;;;;4.18;2.30;;;102.40;2227.20;;;;;;5093264;28;20462;-63
2023/01/11 05:22:09;;;;;;;3.88;2.05;;;102.40;2227.20;;;;;;5093071;28;20085;-63
2023/01/11 05:24:35;;;;;;;4.28;2.72;;;77.70;2227.20;;;;;;5093692;28;20097;-62
2023/01/11 05:27:01;;;;;;;3.38;1.60;;;77.70;2227.20;;;;;;5093264;28;20029;-64
2023/01/11 05:29:27;;;;;;;3.67;1.90;;;102.40;2227.20;;;;;;5093115;28;20031;-63
2023/01/11 05:31:53;;;;;;;18.65;16.92;;;77.70;2227.20;;;;;;5093154;28;20023;-63
2023/01/11 05:34:19;;;;;;;4.10;2.50;;;102.40;2227.20;;;;;;5092534;28;20107;-63
2023/01/11 05:36:45;;;;;;;4.57;3.38;;;77.70;2227.20;;;;;;5092914;28;20165;-64
2023/01/11 05:39:12;;;;;;;3.70;2.53;;;77.70;2227.20;;;;;;5092635;28;20469;-62
2023/01/11 05:41:38;;;;;;;4.80;3.33;;;77.70;2227.20;;;;;;5092909;28;20039;-61
2023/01/11 05:46:48;;;;;;;6.95;2.50;;;77.70;2227.20;;;;;;5091870;28;20492;-62
2023/01/11 05:49:15;;;;;;;8.50;2.60;;;102.50;2227.20;;;;;;5092686;28;20073;-62
2023/01/11 05:51:41;;;;;;;6.22;2.83;;;102.40;2227.20;;;;;;5092707;28;20027;-62
2023/01/11 05:54:11;;;;;;;3.85;1.90;;;102.50;2227.20;;;;;;5092883;28;20024;-61
2023/01/11 05:56:37;;;;;;;1.85;1.30;;;77.70;2227.20;;;;;;5092713;28;20478;-62
2023/01/11 05:59:03;;;;;;;3.20;1.65;;;77.70;2227.20;;;;;;5092538;28;20141;-63
2023/01/11 06:01:29;;;;;;;33.50;19.40;;;77.70;2227.20;;;;;;5092361;28;20522;-63
2023/01/11 06:03:55;;;;;;;4.30;2.53;;;102.40;2227.20;;;;;;5092182;28;20043;-61
2023/01/11 06:06:21;;;;;;;7.65;3.58;;;102.40;2227.20;;;;;;5092477;28;20028;-63
2023/01/11 06:08:47;;;;;;;3.80;2.35;;;102.40;2227.20;;;;;;5092170;28;20111;-63
2023/01/11 06:11:14;;;;;;;2.60;1.70;;;102.40;2227.20;;;;;;5092347;28;20114;-62
2023/01/11 06:13:39;;;;;;;6.32;2.75;;;77.70;2227.20;;;;;;5092218;28;20036;-61
2023/01/11 06:16:11;;;;;;;6.03;2.83;;;102.40;2227.20;;;;;;5091773;28;20083;-62
2023/01/11 06:18:39;;;;;;;4.13;2.53;;;102.50;2227.20;;;;;;5091996;28;20028;-61
2023/01/11 06:21:06;;;;;;;3.72;1.80;;;102.40;2227.20;;;;;;5092140;28;20022;-62
2023/01/11 06:23:35;;;;;;;6.60;4.18;;;102.50;2227.20;;;;;;5091270;28;20036;-62
2023/01/11 06:26:02;;;;;;;8.75;3.88;;;102.40;2227.20;;;;;;5089281;28;20031;-60
2023/01/11 06:28:28;;;;;;;11.40;5.00;;;102.40;2227.20;;;;;;5092027;28;20497;-61
2023/01/11 06:30:55;;;;;;;5.00;2.80;;;102.50;2227.20;;;;;;5091523;28;20397;-65
2023/01/11 06:33:23;;;;;;;9.73;6.50;;;102.60;2227.20;;;;;;5091227;28;20047;-63
2023/01/11 06:35:49;;;;;;;72.50;36.22;;;102.60;2227.20;;;;;;5091703;28;20466;-61
2023/01/11 06:38:16;;;;;;;23.85;13.20;;;102.60;2227.20;;;;;;5092245;28;20032;-64
2023/01/11 06:40:42;;;;;;;18.27;9.52;;;102.70;2227.20;;;;;;5091876;28;20028;-63
2023/01/11 06:43:09;;;;;;;354.33;221.38;;;102.70;2227.20;;;;;;5091792;28;20032;-64
2023/01/11 06:45:37;;;;;;;23.23;14.45;;;102.70;2227.20;;;;;;5092057;28;20047;-63
2023/01/11 06:48:04;;;;;;;8.45;5.95;;;102.80;2227.20;;;;;;5091763;28;20516;-62
2023/01/11 06:50:30;;;;;;;3.95;2.95;;;102.70;2227.20;;;;;;5090748;28;20028;-62
2023/01/11 06:52:58;;;;;;;14.15;11.55;;;102.70;2227.20;;;;;;5091349;28;20099;-62
2023/01/11 06:55:26;;;;;;;22.17;12.82;;;102.60;2227.20;;;;;;5091715;28;20052;-61
2023/01/11 06:57:52;;;;;;;61.05;36.28;;;102.60;2227.20;;;;;;5091553;28;20028;-62
2023/01/11 07:00:18;;;;;;;19.00;10.50;;;102.60;2227.20;;;;;;5091402;28;20065;-62
2023/01/11 07:02:44;;;;;;;28.58;17.52;;;102.60;2227.20;;;;;;5091493;28;20031;-61
2023/01/11 07:05:11;;;;;;;13.15;7.25;;;102.60;2227.20;;;;;;5090864;28;20047;-61
2023/01/11 07:07:38;;;;;;;67.07;38.95;;;102.60;2227.20;;;;;;5091413;28;20142;-63
2023/01/11 07:10:06;;;;;;;18.60;10.95;;;102.60;2227.20;;;;;;5091239;28;20043;-62
2023/01/11 07:12:33;;;;;;;19.33;11.45;;;102.60;2227.20;;;;;;5091217;28;20040;-62
2023/01/11 07:14:58;;;;;;;60.10;33.35;;;102.60;2227.20;;;;;;5090844;28;20382;-61
2023/01/11 07:17:24;;;;;;;21.33;9.25;;;102.60;2227.20;;;;;;5091040;28;20081;-59
2023/01/11 07:19:50;;;;;;;13.35;6.30;;;102.70;2227.20;;;;;;5090835;28;20043;-62
2023/01/11 07:22:16;;;;;;;80.45;37.85;;;102.70;2227.20;;;;;;5091144;28;20028;-61
2023/01/11 07:24:42;;;;;;;72.82;36.92;;;102.60;2227.20;;;;;;5090971;28;20036;-61
2023/01/11 07:27:08;;;;;;;9.38;4.97;;;102.70;2227.20;;;;;;5090957;28;20028;-61
2023/01/11 07:29:33;;;;;;;7.15;5.32;;;102.70;2227.20;;;;;;5091057;28;20484;-62
2023/01/11 07:31:59;;;;;;;31.40;14.85;;;102.60;2227.20;;;;;;5090585;28;20032;-60
2023/01/11 07:34:25;;;;;;;13.35;10.57;;;102.60;2227.20;;;;;;5090889;28;20038;-62
2023/01/11 07:36:50;;;;;;;12.07;6.15;;;102.70;2227.20;;;;;;5091042;28;20024;-61
2023/01/11 07:39:16;;;;;;;218.88;101.57;;;102.70;2227.20;;;;;;5090611;28;20036;-60
2023/01/11 07:44:26;;;;;;;227.77;98.25;;;102.80;2227.20;;;;;;5090538;28;20046;-62
2023/01/11 07:46:52;;;;;;;69.32;45.30;;;102.80;2227.20;;;;;;5090641;28;20130;-62
2023/01/11 07:49:18;;;;;;;20.77;11.00;;;102.80;2227.20;;;;;;5090368;28;20031;-60
2023/01/11 07:51:43;;;;;;;8.75;5.07;;;102.80;2227.20;;;;;;5090530;28;20103;-62
2023/01/11 07:54:09;;;;;;;30.80;16.70;;;102.80;2227.20;;;;;;5090683;28;20024;-62
2023/01/11 07:56:35;;;;;;;12.82;7.55;;;102.90;2227.20;;;;;;5090767;28;20028;-60
2023/01/11 07:59:00;;;;;;;6.20;4.40;;;102.90;2227.20;;;;;;5090567;28;20024;-59
2023/01/11 08:01:26;;;;;;;5.97;3.50;;;102.90;2227.20;;;;;;5090256;28;20028;-61
2023/01/11 08:03:52;;;;;;;7.95;6.10;;;103.10;2227.20;;;;;;5089283;28;20055;-61
2023/01/11 08:06:18;;;;;;;8.80;4.60;;;102.90;2227.20;;;;;;5090221;28;20016;-61
2023/01/11 08:08:44;;;;;;;8.55;5.03;;;102.90;2227.20;;;;;;5090175;28;20024;-61
2023/01/11 08:16:38;;;;;;;5.35;3.65;;;103.00;2227.20;;;;;;5090049;28;20035;-60
2023/01/11 08:19:04;;;;;;;8.07;5.25;;;103.10;2227.20;;;;;;5090367;28;20408;-62
2023/01/11 08:21:30;;;;;;;53.92;25.52;;;103.00;2227.20;;;;;;5089940;28;20479;-63
2023/01/11 08:23:57;;;;;;;105.05;44.38;;;128.00;2252.80;;;;;;5089811;28;20056;-62
2023/01/11 08:26:24;;;;;;;46.97;23.48;;;103.00;2227.20;;;;;;5090316;28;20024;-61
2023/01/11 08:28:50;;;;;;;42.20;18.90;;;103.00;2227.20;;;;;;5089959;28;20020;-61
2023/01/11 08:31:16;;;;;;;54.55;24.38;;;103.10;2227.20;;;;;;5089973;28;20028;-63
2023/01/11 08:33:42;;;;;;;10.05;5.28;;;103.10;2227.20;;;;;;5090432;28;20423;-62
2023/01/11 08:36:10;;;;;;;12.68;7.78;;;103.00;2227.20;;;;;;5090096;28;20024;-63
2023/01/11 08:38:36;;;;;;;18.60;9.98;;;103.20;2227.20;;;;;;5089946;28;20035;-62
2023/01/11 08:41:09;;;;;;;14.40;8.13;;;103.10;2227.20;;;;;;5089736;28;20020;-63
2023/01/11 08:43:39;;;;;;;26.42;12.93;;;103.00;2227.20;;;;;;5089390;28;20093;-59
2023/01/11 08:46:05;;;;;;;68.00;31.13;;;103.10;2227.20;;;;;;5087157;28;20040;-62
2023/01/11 08:48:31;;;;;;;21.45;10.45;;;103.30;2227.20;;;;;;5089605;28;20028;-63
2023/01/11 08:50:56;;;;;;;10.40;6.53;;;103.20;2227.20;;;;;;5089387;28;21367;-63
2023/01/11 08:53:22;;;;;;;47.53;25.10;;;103.20;2227.20;;;;;;5086699;28;20028;-61
2023/01/11 08:55:49;;;;;;;135.82;74.68;;;103.20;2227.20;;;;;;5089410;28;20107;-62
2023/01/11 08:58:15;;;;;;;6.05;3.97;;;103.10;2227.20;;;;;;5089961;28;20024;-61
2023/01/11 09:00:41;;;;;;;47.05;25.95;;;103.00;2227.20;;;;;;5089820;28;20027;-60
2023/01/11 09:03:10;;;;;;;13.90;11.73;;;103.10;2227.20;;;;;;5089772;28;20110;-62
2023/01/11 09:05:36;;;;;;;7.18;5.22;;;103.10;2227.20;;;;;;5089399;28;20043;-63
2023/01/11 09:08:03;;;;;;;13.75;7.15;;;103.10;2227.20;;;;;;5089760;28;20574;-62
2023/01/11 09:10:29;;;;;;;12.93;8.35;;;103.20;2227.20;;;;;;5089499;28;20482;-62
2023/01/11 09:12:56;;;;;;;6.10;3.65;;;103.30;2227.20;;;;;;5089686;28;20024;-62
2023/01/11 09:15:23;;;;;;;4.65;3.60;;;103.30;2227.20;;;;;;5092644;28;20098;-62
2023/01/11 09:17:49;;;;;;;5.55;3.67;;;103.20;2227.20;;;;;;5093232;28;20157;-62
2023/01/11 09:20:15;;;;;;;5.00;3.65;;;103.20;2227.20;;;;;;5093496;28;20020;-61
2023/01/11 09:22:48;;;;;;;5.60;4.00;;;103.20;2227.20;;;;;;5093192;28;20469;-62
2023/01/11 09:25:14;;;;;;;7.70;5.20;;;128.00;2252.80;;;;;;5093339;28;20036;-62
2023/01/11 09:27:48;;;;;;;11.43;6.55;;;103.30;2227.20;;;;;;5093059;28;20024;-63
2023/01/11 09:30:16;;;;;;;9.23;5.00;;;103.30;2227.20;;;;;;5093432;28;20024;-62
2023/01/11 09:32:42;;;;;;;16.25;8.73;;;103.20;2227.20;;;;;;5093375;28;20024;-62
2023/01/11 09:35:08;;;;;;;7.35;4.05;;;103.10;2227.20;;;;;;5093119;28;20031;-62
2023/01/11 09:37:40;;;;;;;7.70;4.53;;;103.20;2227.20;;;;;;5093327;28;20024;-61
2023/01/11 09:40:12;;;;;;;14.23;7.85;;;103.20;2227.20;;;;;;5092895;28;20032;-62
2023/01/11 09:42:39;;;;;;;10.13;5.93;;;103.20;2227.20;;;;;;5092861;28;20107;-61
2023/01/11 09:45:11;;;;;;;17.17;13.20;;;103.30;2227.20;;;;;;5093240;28;20386;-61
2023/01/11 09:48:14;;;;;;;6.38;4.93;;;103.30;2227.20;;;;;;5092554;28;20052;-62
2023/01/11 09:50:44;;;;;;;8.60;5.50;;;103.20;2227.20;;;;;;5010380;28;20488;-62
2023/01/11 09:53:33;;;;;;;10.82;6.47;;;103.30;2227.20;;;;;;5008256;28;20026;-61
2023/01/11 09:56:02;;;;;;;5.75;4.75;;;103.20;2227.20;;;;;;5008528;28;20590;-62
2023/01/11 09:58:37;;;;;;;10.75;6.45;;;103.30;2227.20;;;;;;5008790;28;20503;-61
2023/01/11 10:01:15;;;;;;;10.95;6.78;;;103.20;2227.20;;;;;;5008675;28;20038;-62
2023/01/11 10:03:48;;;;;;;9.98;6.18;;;103.10;2227.20;;;;;;5008550;28;20050;-62
2023/01/11 10:06:17;;;;;;;10.82;7.25;;;103.10;2227.20;;;;;;5008320;28;20116;-61
2023/01/11 10:09:02;;;;;;;7.40;5.50;;;103.10;2227.20;;;;;;5008242;28;20029;-62
2023/01/11 10:11:37;;;;;;;6.22;4.35;;;103.10;2227.20;;;;;;5008203;28;20041;-61
2023/01/11 10:14:24;;;;;;;7.43;6.18;;;103.10;1996.80;;;;;;5008292;28;20037;-62
2023/01/11 10:17:00;;;;;;;10.70;7.15;;;103.10;2176.00;;;;;;5007953;28;20045;-62
2023/01/11 10:19:37;;;;;;;8.35;5.47;;;103.20;2227.20;;;;;;5008090;28;20033;-63
2023/01/11 10:22:11;;;;;;;8.77;7.05;;;103.20;2227.20;;;;;;5008093;28;20116;-62
2023/01/11 10:24:49;;;;;;;6.47;5.55;;;103.20;2227.20;;;;;;5007947;28;20037;-62
2023/01/11 10:27:40;;;;;;;14.75;11.10;;;128.10;2252.80;;;;;;5041162;28;20040;-62
2023/01/11 10:33:37;;;;;;;11.55;8.43;;;103.30;2227.20;;;;;;5027778;28;20037;-61
2023/01/11 10:36:31;;;;;;;12.48;10.55;;;103.30;2227.20;;;;;;5027629;28;20144;-62
2023/01/11 10:42:16;;;;;;;11.40;9.93;;;103.30;2227.20;;;;;;5027727;28;20471;-62
2023/01/11 10:44:56;;;;;;;10.60;9.52;;;128.00;2252.80;;;;;;5026962;28;20069;-63
2023/01/11 10:47:28;;;;;;;7.65;5.82;;;128.00;2252.80;;;;;;5027177;28;20057;-63
2023/01/11 10:49:55;;;;;;;11.52;9.80;;;128.00;2252.80;;;;;;5027287;28;20049;-62
2023/01/11 10:52:32;;;;;;;11.18;6.25;;;128.20;2252.80;;;;;;5026993;28;20391;-62
2023/01/11 10:55:01;;;;;;;12.50;10.77;;;128.10;2252.80;;;;;;5027161;28;20467;-63
2023/01/11 10:57:48;;;;;;;9.65;8.65;;;128.20;2252.80;;;;;;5026873;28;20388;-62
2023/01/11 11:00:31;;;;;;;16.83;14.85;;;128.30;2252.80;;;;;;5027199;28;20025;-63
2023/01/11 11:03:03;;;;;;;8.30;7.45;;;128.10;2252.80;;;;;;5028030;28;20026;-63
2023/01/11 11:05:47;;;;;;;6.40;5.50;;;128.10;2252.80;;;;;;5089329;28;20497;-62
2023/01/11 11:08:29;;;;;;;6.53;5.20;;;128.20;2252.80;;;;;;5089686;28;20066;-63
2023/01/11 11:11:03;;;;;;;19.05;17.08;;;128.10;2252.80;;;;;;5088829;28;20028;-63
2023/01/11 11:13:50;;;;;;;7.97;6.32;;;128.00;2252.80;;;;;;5089530;28;20038;-63
2023/01/11 11:16:22;;;;;;;7.72;5.50;;;128.10;2252.80;;;;;;5089357;28;20020;-62
2023/01/11 11:18:49;;;;;;;6.43;4.82;;;128.10;2252.80;;;;;;5089309;28;20070;-62
2023/01/11 11:21:42;;;;;;;16.98;13.15;;;128.10;2252.80;;;;;;5089146;28;20028;-63
2023/01/11 11:24:20;;;;;;;10.27;7.85;;;128.30;2252.80;;;;;;5084093;28;20051;-62
2023/01/11 11:26:53;;;;;;;7.93;4.82;;;128.30;2252.80;;;;;;5085760;28;20067;-62
2023/01/11 11:29:21;;;;;;;22.45;18.98;;;128.30;2252.80;;;;;;5086694;28;20035;-62
2023/01/11 11:31:49;;;;;;;6.97;4.97;;;128.20;2252.80;;;;;;5085800;28;20042;-62
2023/01/11 11:34:18;;;;;;;7.88;5.50;;;128.30;2252.80;;;;;;5087667;28;20008;-63
2023/01/11 11:36:47;;;;;;;14.82;12.65;;;128.40;2252.80;;;;;;5086431;28;20039;-61
2023/01/11 11:39:29;;;;;;;6.97;4.45;;;128.20;2252.80;;;;;;5086734;28;20016;-62
2023/01/11 11:42:02;;;;;;;10.13;7.00;;;128.30;2252.80;;;;;;5086775;28;20028;-60
2023/01/11 11:44:28;;;;;;;13.90;10.77;;;128.40;2252.80;;;;;;5086370;28;20039;-63
2023/01/11 11:47:05;;;;;;;7.43;6.43;;;128.40;2252.80;;;;;;5086312;28;20079;-61
2023/01/11 11:49:32;;;;;;;8.00;6.82;;;128.60;2252.80;;;;;;5086683;28;20077;-62
2023/01/11 11:52:04;;;;;;;7.40;5.28;;;128.30;2252.80;;;;;;5086950;28;20028;-61
2023/01/11 11:54:32;;;;;;;6.32;4.20;;;128.20;2252.80;;;;;;5084873;28;20032;-61
2023/01/11 11:57:11;;;;;;;9.15;6.20;;;128.30;2252.80;;;;;;5086226;28;20092;-60
2023/01/11 11:59:36;;;;;;;6.88;4.95;;;128.40;2252.80;;;;;;5085368;28;20020;-60
2023/01/11 12:02:10;;;;;;;7.65;5.03;;;128.30;2252.80;;;;;;5085932;28;20032;-62
2023/01/11 12:04:46;;;;;;;8.88;6.50;;;128.30;2252.80;;;;;;5087925;28;20032;-62
2023/01/11 12:07:20;;;;;;;15.32;9.32;;;128.40;2252.80;;;;;;5087752;28;20028;-61
2023/01/11 12:10:08;;;;;;;15.32;11.18;;;128.30;2252.80;;;;;;5084992;28;20066;-62
2023/01/11 12:12:46;;;;;;;8.00;6.45;;;128.30;2252.80;;;;;;5086989;28;20079;-62
2023/01/11 12:15:15;;;;;;;9.20;6.68;;;128.20;2252.80;;;;;;5087681;28;20032;-61
2023/01/11 12:17:41;;;;;;;20.80;11.95;;;128.40;2252.80;;;;;;5087625;28;20031;-62
2023/01/11 12:20:22;;;;;;;6.47;5.40;;;128.40;2252.80;;;;;;5087305;28;20450;-61
2023/01/11 12:23:11;;;;;;;11.85;6.57;;;128.50;2252.80;;;;;;5087117;28;20040;-61
2023/01/11 12:26:02;;;;;;;8.48;6.70;;;128.60;2252.80;;;;;;5086301;28;20482;-61
2023/01/11 12:28:56;;;;;;;12.50;8.98;;;128.60;2252.80;;;;;;5073912;28;20031;-61
2023/01/11 12:31:39;;;;;;;11.02;8.85;;;128.40;2252.80;;;;;;5087012;28;20125;-61
2023/01/11 12:34:35;;;;;;;11.57;8.52;;;128.40;2252.80;;;;;;5087185;28;20069;-62
2023/01/11 12:37:10;;;;;;;10.00;6.97;;;128.50;2252.80;;;;;;5086444;28;20474;-62
2023/01/11 12:39:46;;;;;;;19.42;14.25;;;128.30;2252.80;;;;;;5086747;28;20028;-62
2023/01/11 12:42:21;;;;;;;21.70;13.60;;;128.40;2252.80;;;;;;5087541;28;20028;-62
2023/01/11 12:45:10;;;;;;;12.98;8.73;;;128.40;2252.80;;;;;;5087112;28;20089;-61
2023/01/11 12:47:47;;;;;;;22.13;16.77;;;128.50;2252.80;;;;;;5004711;28;20236;-62
2023/01/11 12:50:24;;;;;;;26.25;20.30;;;128.50;2252.80;;;;;;5008021;28;20176;-61
2023/01/11 12:52:50;;;;;;;8.65;6.93;;;128.50;2252.80;;;;;;5008664;28;20046;-62
2023/01/11 12:55:34;;;;;;;14.60;10.75;;;128.40;2252.80;;;;;;5008789;28;20574;-61
2023/01/11 12:58:06;;;;;;;11.32;7.88;;;128.40;2252.80;;;;;;5009306;28;20123;-62
2023/01/11 13:00:57;;;;;;;11.23;6.82;;;128.50;2252.80;;;;;;5008766;28;20083;-62
2023/01/11 13:03:42;;;;;;;10.65;5.80;;;;;;;;;;5008691;28;20030;-62
2023/01/11 13:06:10;;;;;;;10.02;7.38;;;;;;;;;;5009365;28;20030;-61
2023/01/11 13:08:48;;;;;;;17.00;13.40;;;;;;;;;;5009986;28;20033;-62
2023/01/11 13:11:34;;;;;;;12.02;7.85;;;;;;;;;;5008440;28;20045;-62